createdAt,value
2022-08-04T00:02:15.156Z,3.20
2022-08-04T00:04:45.106Z,3.17
2022-08-04T00:07:17.022Z,2.90
2022-08-04T00:09:43.347Z,3.17
2022-08-04T00:12:11.494Z,3.33
2022-08-04T00:14:41.186Z,2.67
2022-08-04T00:17:10.529Z,3.05
2022-08-04T00:19:40.664Z,2.80
2022-08-04T00:22:09.297Z,3.05
2022-08-04T00:24:36.826Z,3.17
2022-08-04T00:27:03.919Z,3.47
2022-08-04T00:29:31.080Z,2.80
2022-08-04T00:31:58.068Z,2.80
2022-08-04T00:34:28.356Z,3.00
2022-08-04T00:36:55.828Z,3.25
2022-08-04T00:39:22.800Z,3.30
2022-08-04T00:41:56.694Z,3.00
2022-08-04T00:44:29.552Z,3.08
2022-08-04T00:47:14.927Z,3.00
2022-08-04T00:49:50.178Z,3.37
2022-08-04T00:52:32.274Z,2.92
2022-08-04T00:55:19.783Z,3.00
2022-08-04T00:57:52.300Z,3.03
2022-08-04T01:00:19.316Z,3.13
2022-08-04T01:02:45.674Z,3.50
2022-08-04T01:05:21.944Z,3.40
2022-08-04T01:08:06.896Z,2.95
2022-08-04T01:10:58.596Z,3.15
2022-08-04T01:13:43.471Z,3.00
2022-08-04T01:16:13.329Z,3.00
2022-08-04T01:18:55.030Z,2.95
2022-08-04T01:21:30.648Z,2.70
2022-08-04T01:24:15.889Z,3.03
2022-08-04T01:26:57.374Z,2.92
2022-08-04T01:29:34.378Z,2.70
2022-08-04T01:32:27.849Z,2.95
2022-08-04T01:34:57.349Z,3.08
2022-08-04T01:37:45.317Z,3.10
2022-08-04T01:40:14.067Z,3.50
2022-08-04T01:42:41.803Z,3.50
2022-08-04T01:45:09.434Z,3.30
2022-08-04T01:47:36.679Z,3.30
2022-08-04T01:50:07.834Z,3.10
2022-08-04T01:52:35.200Z,2.95
2022-08-04T01:55:02.922Z,3.10
2022-08-04T01:57:38.004Z,3.20
2022-08-04T02:00:06.909Z,3.38
2022-08-04T02:02:33.848Z,3.22
2022-08-04T02:05:00.347Z,3.00
2022-08-04T02:07:33.554Z,3.72
2022-08-04T02:10:07.547Z,3.17
2022-08-04T02:12:34.008Z,3.13
2022-08-04T02:15:03.771Z,3.30
2022-08-04T02:17:51.712Z,3.13
2022-08-04T02:20:34.650Z,3.45
2022-08-04T02:23:05.495Z,3.08
2022-08-04T02:25:39.600Z,2.92
2022-08-04T02:28:05.940Z,3.25
2022-08-04T02:30:40.368Z,3.20
2022-08-04T02:33:10.527Z,3.13
2022-08-04T02:35:38.626Z,2.92
2022-08-04T02:38:11.671Z,3.38
2022-08-04T02:40:39.586Z,3.58
2022-08-04T02:43:06.424Z,3.33
2022-08-04T02:45:35.960Z,3.08
2022-08-04T02:48:29.107Z,3.60
2022-08-04T02:50:50.239Z,3.30
2022-08-04T02:53:21.633Z,3.55
2022-08-04T02:55:50.865Z,3.78
2022-08-04T02:58:21.235Z,3.72
2022-08-04T03:00:50.229Z,3.55
2022-08-04T03:03:41.885Z,3.95
2022-08-04T03:06:11.458Z,4.18
2022-08-04T03:08:56.636Z,3.75
2022-08-04T03:11:25.976Z,3.70
2022-08-04T03:14:18.780Z,3.50
2022-08-04T03:17:04.045Z,3.78
2022-08-04T03:19:36.594Z,3.80
2022-08-04T03:22:26.404Z,4.13
2022-08-04T03:25:04.875Z,3.72
2022-08-04T03:27:40.461Z,3.90
2022-08-04T03:30:19.069Z,4.03
2022-08-04T03:32:51.641Z,3.80
2022-08-04T03:35:33.104Z,4.20
2022-08-04T03:38:19.735Z,3.83
2022-08-04T03:40:49.178Z,4.07
2022-08-04T03:43:57.888Z,3.90
2022-08-04T03:46:17.867Z,4.00
2022-08-04T03:49:19.513Z,3.97
2022-08-04T03:52:13.482Z,3.72
2022-08-04T03:54:49.699Z,3.90
2022-08-04T03:57:25.427Z,3.88
2022-08-04T04:02:30.441Z,3.80
2022-08-04T04:05:26.883Z,4.15
2022-08-04T04:08:01.964Z,3.88
2022-08-04T04:10:31.505Z,3.53
2022-08-04T04:13:16.259Z,4.07
2022-08-04T04:15:50.269Z,3.92
2022-08-04T04:18:26.971Z,3.97
2022-08-04T04:21:12.121Z,4.10
2022-08-04T04:23:57.077Z,3.60
2022-08-04T04:26:23.449Z,4.38
2022-08-04T04:29:02.876Z,4.28
2022-08-04T04:31:36.615Z,3.47
2022-08-04T04:34:21.508Z,4.43
2022-08-04T04:36:47.888Z,3.83
2022-08-04T04:39:17.542Z,4.00
2022-08-04T04:42:06.162Z,3.78
2022-08-04T04:44:35.574Z,3.47
2022-08-04T04:47:08.184Z,3.67
2022-08-04T04:49:57.800Z,3.97
2022-08-04T04:52:24.165Z,3.88
2022-08-04T04:54:53.496Z,3.78
2022-08-04T04:57:20.926Z,3.22
2022-08-04T05:00:09.408Z,3.78
2022-08-04T05:02:58.747Z,3.70
2022-08-04T05:05:30.277Z,3.25
2022-08-04T05:08:43.205Z,3.30
2022-08-04T05:11:04.704Z,3.47
2022-08-04T05:14:34.918Z,3.35
2022-08-04T05:16:36.480Z,2.70
2022-08-04T05:19:29.395Z,2.72
2022-08-04T05:22:02.045Z,2.50
2022-08-04T05:24:28.947Z,2.42
2022-08-04T05:27:06.169Z,2.60
2022-08-04T05:29:37.175Z,2.58
2022-08-04T05:32:10.566Z,2.45
2022-08-04T05:34:42.454Z,3.00
2022-08-04T05:37:10.807Z,3.15
2022-08-04T05:39:39.541Z,2.70
2022-08-04T05:42:07.425Z,2.00
2022-08-04T05:44:34.914Z,2.33
2022-08-04T05:47:02.733Z,2.80
2022-08-04T05:49:29.486Z,2.30
2022-08-04T05:52:03.250Z,2.30
2022-08-04T05:54:33.684Z,1.63
2022-08-04T05:57:00.320Z,1.83
2022-08-04T05:59:27.597Z,2.00
2022-08-04T06:01:57.598Z,1.88
2022-08-04T06:04:41.023Z,1.80
2022-08-04T06:07:07.886Z,2.33
2022-08-04T06:09:34.562Z,2.60
2022-08-04T06:12:04.238Z,2.30
2022-08-04T06:14:36.263Z,1.85
2022-08-04T06:18:32.413Z,2.10
2022-08-04T06:20:02.539Z,1.95
2022-08-04T06:22:41.921Z,2.30
2022-08-04T06:25:10.153Z,2.30
2022-08-04T06:27:36.589Z,1.92
2022-08-04T06:30:03.362Z,1.70
2022-08-04T06:32:41.630Z,1.90
2022-08-04T06:35:11.272Z,1.90
2022-08-04T06:37:42.086Z,2.03
2022-08-04T06:40:30.899Z,1.70
2022-08-04T06:42:57.781Z,1.35
2022-08-04T06:45:24.744Z,1.42
2022-08-04T06:47:51.863Z,1.30
2022-08-04T06:51:25.044Z,1.48
2022-08-04T06:53:06.151Z,1.48
2022-08-04T06:55:34.623Z,1.75
2022-08-04T06:58:03.339Z,1.30
2022-08-04T07:00:30.588Z,1.30
2022-08-04T07:02:57.921Z,1.42
2022-08-04T07:05:24.604Z,1.50
2022-08-04T07:07:57.874Z,1.50
2022-08-04T07:10:28.063Z,1.27
2022-08-04T07:12:55.959Z,1.55
2022-08-04T07:15:22.962Z,1.38
2022-08-04T07:17:52.660Z,1.45
2022-08-04T07:20:35.317Z,1.25
2022-08-04T07:23:05.820Z,1.30
2022-08-04T07:25:58.720Z,1.40
2022-08-04T07:28:20.772Z,1.23
2022-08-04T07:30:47.681Z,1.40
2022-08-04T07:33:14.594Z,1.15
2022-08-04T07:36:10.646Z,1.23
2022-08-04T07:38:27.971Z,1.33
2022-08-04T07:40:54.954Z,1.30
2022-08-04T07:43:21.523Z,1.40
2022-08-04T07:45:48.179Z,1.35
2022-08-04T07:48:15.531Z,1.20
2022-08-04T07:50:42.792Z,1.40
2022-08-04T07:53:52.926Z,1.27
2022-08-04T07:55:56.042Z,1.13
2022-08-04T07:58:22.395Z,1.35
2022-08-04T08:00:48.965Z,1.20
2022-08-04T08:03:16.260Z,1.50
2022-08-04T08:06:16.702Z,1.30
2022-08-04T08:08:37.776Z,1.40
2022-08-04T08:11:04.446Z,1.27
2022-08-04T08:13:33.271Z,1.50
2022-08-04T08:16:00.639Z,1.38
2022-08-04T08:18:27.292Z,1.20
2022-08-04T08:20:54.113Z,1.40
2022-08-04T08:23:21.763Z,1.50
2022-08-04T08:25:49.161Z,1.38
2022-08-04T08:28:18.549Z,1.33
2022-08-04T08:30:44.937Z,1.40
2022-08-04T08:33:14.003Z,1.52
2022-08-04T08:35:54.459Z,1.40
2022-08-04T08:38:27.567Z,1.23
2022-08-04T08:40:55.940Z,1.40
2022-08-04T08:44:04.747Z,1.27
2022-08-04T08:46:48.509Z,1.27
2022-08-04T08:50:02.273Z,1.60
2022-08-04T08:52:14.513Z,1.30
2022-08-04T08:55:06.744Z,1.42
2022-08-04T08:58:01.032Z,1.30
2022-08-04T09:00:31.763Z,1.23
2022-08-04T09:03:04.012Z,1.30
2022-08-04T09:05:37.764Z,1.33
2022-08-04T09:08:33.522Z,1.10
2022-08-04T09:11:12.686Z,1.30
2022-08-04T09:13:41.562Z,1.00
2022-08-04T09:16:26.895Z,1.35
2022-08-04T09:18:53.553Z,1.50
2022-08-04T09:21:26.047Z,1.40
2022-08-04T09:24:35.853Z,1.17
2022-08-04T09:27:00.428Z,1.50
2022-08-04T09:29:36.003Z,1.20
2022-08-04T09:34:33.643Z,1.38
2022-08-04T09:37:04.821Z,1.25
2022-08-04T09:39:41.201Z,1.38
2022-08-04T09:42:30.900Z,1.33
2022-08-04T09:45:07.462Z,1.30
2022-08-04T09:47:47.795Z,1.40
2022-08-04T09:50:17.261Z,1.25
2022-08-04T09:52:49.727Z,1.50
2022-08-04T09:55:38.535Z,1.50
2022-08-04T09:58:28.850Z,1.27
2022-08-04T10:01:02.343Z,1.30
2022-08-04T10:03:33.575Z,1.70
2022-08-04T10:12:56.845Z,1.33
2022-08-04T10:15:42.122Z,1.40
2022-08-04T10:20:45.827Z,1.58
2022-08-04T10:23:30.402Z,1.50
2022-08-04T10:26:15.289Z,1.60
2022-08-04T10:28:46.435Z,1.50
2022-08-04T10:31:16.995Z,1.42
2022-08-04T10:33:49.414Z,1.63
2022-08-04T10:36:17.966Z,1.50
2022-08-04T10:38:56.653Z,1.60
2022-08-04T10:41:39.788Z,1.40
2022-08-04T10:44:13.613Z,1.58
2022-08-04T10:46:49.320Z,1.73
2022-08-04T10:49:36.325Z,1.60
2022-08-04T10:52:08.637Z,1.50
2022-08-04T10:54:58.062Z,1.58
2022-08-04T10:57:36.152Z,1.60
2022-08-04T11:00:10.539Z,1.60
2022-08-04T11:02:43.211Z,1.52
2022-08-04T11:05:12.583Z,1.52
2022-08-04T11:07:40.668Z,1.50
2022-08-04T11:10:07.937Z,1.50
2022-08-04T11:12:35.143Z,1.70
2022-08-04T11:15:06.594Z,1.63
2022-08-04T11:17:36.082Z,1.60
2022-08-04T11:25:35.903Z,1.90
2022-08-04T11:28:19.820Z,2.00
2022-08-04T11:30:59.112Z,1.95
2022-08-04T11:33:44.141Z,1.88
2022-08-04T11:36:16.392Z,1.80
2022-08-04T11:39:04.938Z,1.90
2022-08-04T11:41:54.644Z,1.73
2022-08-04T11:44:28.885Z,1.73
2022-08-04T11:49:34.105Z,2.17
2022-08-04T11:52:21.796Z,1.80
2022-08-04T11:54:52.545Z,1.70
2022-08-04T11:57:21.641Z,2.20
2022-08-04T11:59:55.345Z,1.98
2022-08-04T12:02:30.895Z,2.42
2022-08-04T12:04:58.460Z,2.35
2022-08-04T12:07:37.556Z,2.30
2022-08-04T12:10:41.109Z,2.30
2022-08-04T12:13:13.270Z,2.17
2022-08-04T12:15:50.129Z,2.30
2022-08-04T12:18:16.474Z,2.05
2022-08-04T12:20:49.581Z,2.35
2022-08-04T12:23:22.079Z,2.60
2022-08-04T12:25:52.184Z,2.40
2022-08-04T12:28:23.517Z,2.58
2022-08-04T12:30:58.211Z,2.65
2022-08-04T12:34:03.105Z,2.40
2022-08-04T12:36:27.570Z,2.30
2022-08-04T12:39:09.299Z,2.20
2022-08-04T12:41:54.205Z,2.30
2022-08-04T12:44:36.875Z,2.30
2022-08-04T12:47:26.570Z,2.38
2022-08-04T12:50:00.766Z,2.15
2022-08-04T12:52:51.697Z,2.42
2022-08-04T12:55:15.074Z,2.40
2022-08-04T12:57:42.600Z,2.20
2022-08-04T13:00:09.795Z,2.20
2022-08-04T13:02:46.197Z,2.40
2022-08-04T13:05:17.245Z,2.50
2022-08-04T13:07:50.782Z,2.40
2022-08-04T13:10:18.479Z,2.23
2022-08-04T13:12:52.927Z,2.47
2022-08-04T13:15:21.871Z,2.30
2022-08-04T13:17:51.077Z,2.70
2022-08-04T13:20:24.037Z,2.50
2022-08-04T13:22:50.431Z,2.30
2022-08-04T13:26:43.479Z,2.35
2022-08-04T13:28:06.754Z,2.45
2022-08-04T13:30:33.569Z,2.30
2022-08-04T13:33:01.489Z,2.38
2022-08-04T13:35:55.717Z,2.53
2022-08-04T13:38:17.647Z,2.55
2022-08-04T13:40:44.685Z,2.33
2022-08-04T13:44:16.955Z,2.47
2022-08-04T13:46:09.404Z,2.55
2022-08-04T13:48:40.396Z,2.50
2022-08-04T13:51:07.228Z,2.25
2022-08-04T13:53:34.129Z,2.60
2022-08-04T13:56:01.501Z,2.15
2022-08-04T13:58:30.097Z,2.17
2022-08-04T14:01:05.841Z,1.90
2022-08-04T14:03:53.590Z,1.80
2022-08-04T14:06:24.268Z,2.10
2022-08-04T14:09:20.113Z,2.13
2022-08-04T14:12:06.121Z,1.98
2022-08-04T14:14:35.232Z,1.75
2022-08-04T14:17:19.901Z,1.92
2022-08-04T14:19:47.774Z,2.08
2022-08-04T14:22:26.649Z,2.10
2022-08-04T14:25:16.867Z,2.15
2022-08-04T14:27:43.505Z,2.40
2022-08-04T14:30:25.123Z,2.38
2022-08-04T14:32:57.702Z,2.38
2022-08-04T14:35:26.498Z,2.40
2022-08-04T14:38:11.528Z,2.47
2022-08-04T14:40:39.136Z,2.15
2022-08-04T14:43:09.312Z,1.92
2022-08-04T14:45:37.261Z,2.00
2022-08-04T14:48:08.056Z,1.90
2022-08-04T14:50:47.803Z,1.70
2022-08-04T14:53:29.322Z,2.13
2022-08-04T14:55:57.023Z,2.00
2022-08-04T14:58:35.263Z,1.98
2022-08-04T15:01:09.628Z,1.70
2022-08-04T15:03:50.078Z,1.90
2022-08-04T15:06:23.885Z,1.90
2022-08-04T15:08:51.438Z,1.88
2022-08-04T15:11:23.592Z,1.85
2022-08-04T15:13:50.616Z,2.00
2022-08-04T15:16:17.017Z,2.10
2022-08-04T15:18:43.559Z,1.80
2022-08-04T15:21:16.332Z,2.00
2022-08-04T15:23:42.750Z,2.15
2022-08-04T15:26:13.548Z,2.55
2022-08-04T15:28:41.157Z,2.10
2022-08-04T15:31:59.654Z,2.10
2022-08-04T15:33:56.082Z,2.22
2022-08-04T15:36:31.183Z,2.03
2022-08-04T15:39:12.946Z,2.08
2022-08-04T15:42:10.493Z,2.00
2022-08-04T15:44:51.601Z,2.10
2022-08-04T15:47:18.257Z,2.15
2022-08-04T15:49:45.037Z,1.90
2022-08-04T15:52:12.806Z,2.20
2022-08-04T15:54:39.453Z,1.92
2022-08-04T15:57:09.461Z,1.92
2022-08-04T15:59:54.823Z,1.73
2022-08-04T16:02:29.331Z,2.10
2022-08-04T16:05:18.476Z,2.08
2022-08-04T16:07:56.765Z,1.92
2022-08-04T16:10:35.345Z,2.10
2022-08-04T16:13:04.730Z,2.28
2022-08-04T16:15:43.527Z,1.70
2022-08-04T16:18:25.433Z,1.90
2022-08-04T16:20:57.277Z,1.95
2022-08-04T16:23:54.409Z,2.03
2022-08-04T16:26:38.206Z,1.88
2022-08-04T16:29:31.278Z,2.30
2022-08-04T16:32:12.906Z,1.80
2022-08-04T16:35:00.102Z,2.00
2022-08-04T16:37:29.724Z,1.75
2022-08-04T16:40:15.065Z,1.90
2022-08-04T16:42:42.685Z,1.80
2022-08-04T16:45:09.236Z,2.10
2022-08-04T16:47:47.797Z,1.83
2022-08-04T16:50:15.247Z,2.00
2022-08-04T16:52:43.189Z,1.90
2022-08-04T16:55:09.593Z,2.17
2022-08-04T16:57:38.806Z,1.83
2022-08-04T17:00:05.692Z,2.10
2022-08-04T17:02:32.378Z,2.10
2022-08-04T17:05:07.330Z,2.00
2022-08-04T17:08:02.154Z,2.17
2022-08-04T17:10:37.509Z,1.90
2022-08-04T17:14:03.235Z,2.05
2022-08-04T17:16:13.653Z,1.98
2022-08-04T17:18:48.576Z,1.80
2022-08-04T17:21:25.235Z,2.40
2022-08-04T17:24:14.684Z,2.20
2022-08-04T17:26:51.946Z,1.90
2022-08-04T17:29:21.733Z,2.03
2022-08-04T17:31:48.263Z,2.03
2022-08-04T17:34:19.489Z,2.15
2022-08-04T17:36:47.624Z,2.20
2022-08-04T17:39:17.065Z,2.40
2022-08-04T17:41:49.105Z,2.47
2022-08-04T17:44:16.265Z,2.50
2022-08-04T17:46:45.319Z,2.40
2022-08-04T17:49:17.090Z,2.45
2022-08-04T17:52:05.482Z,2.63
2022-08-04T17:54:38.930Z,2.50
2022-08-04T17:57:20.064Z,2.85
2022-08-04T17:59:59.382Z,3.63
2022-08-04T18:02:32.413Z,2.45
2022-08-04T18:05:06.800Z,2.97
2022-08-04T18:08:37.682Z,2.30
2022-08-04T18:10:43.228Z,2.30
2022-08-04T18:13:21.144Z,2.30
2022-08-04T18:15:47.629Z,2.30
2022-08-04T18:18:20.900Z,2.65
2022-08-04T18:20:50.123Z,2.85
2022-08-04T18:23:17.074Z,2.70
2022-08-04T18:25:51.589Z,2.40
2022-08-04T18:28:26.818Z,3.17
2022-08-04T18:30:55.314Z,2.63
2022-08-04T18:33:40.148Z,2.00
2022-08-04T18:36:33.028Z,2.47
2022-08-04T18:38:58.270Z,3.17
2022-08-04T18:41:26.402Z,3.47
2022-08-04T18:43:56.024Z,3.45
2022-08-04T18:46:23.838Z,2.72
2022-08-04T18:48:53.650Z,2.45
2022-08-04T18:51:23.772Z,2.63
2022-08-04T18:53:59.070Z,2.78
2022-08-04T18:56:31.913Z,2.90
2022-08-04T18:59:04.402Z,2.78
2022-08-04T19:04:32.273Z,2.38
2022-08-04T19:07:02.498Z,2.75
2022-08-04T19:09:52.141Z,2.70
2022-08-04T19:12:27.424Z,2.55
2022-08-04T19:14:58.082Z,3.88
2022-08-04T19:17:56.592Z,3.40
2022-08-04T19:20:16.154Z,2.78
2022-08-04T19:24:28.950Z,3.13
2022-08-04T19:25:58.761Z,2.80
2022-08-04T19:28:29.716Z,2.55
2022-08-04T19:31:00.667Z,3.13
2022-08-04T19:33:30.168Z,2.97
2022-08-04T19:36:17.348Z,2.95
2022-08-04T19:38:43.894Z,2.67
2022-08-04T19:41:14.272Z,2.80
2022-08-04T19:43:43.999Z,2.88
2022-08-04T19:46:10.775Z,3.22
2022-08-04T19:48:38.762Z,3.08
2022-08-04T19:51:05.233Z,2.90
2022-08-04T19:53:37.661Z,2.92
2022-08-04T19:56:04.685Z,2.60
2022-08-04T19:58:31.085Z,3.08
2022-08-04T20:00:57.615Z,3.40
2022-08-04T20:04:07.816Z,3.55
2022-08-04T20:06:10.554Z,3.40
2022-08-04T20:08:37.021Z,3.10
2022-08-04T20:11:03.768Z,2.92
2022-08-04T20:13:37.177Z,2.63
2022-08-04T20:16:22.639Z,3.07
2022-08-04T20:18:55.532Z,3.85
2022-08-04T20:21:53.686Z,3.05
2022-08-04T20:24:38.874Z,2.60
2022-08-04T20:26:57.337Z,2.60
2022-08-04T20:29:40.696Z,2.70
2022-08-04T20:32:09.438Z,2.65
2022-08-04T20:34:41.371Z,2.38
2022-08-04T20:40:03.652Z,2.50
2022-08-04T20:42:34.134Z,2.58
2022-08-04T20:45:01.431Z,2.50
2022-08-04T20:50:14.704Z,2.38
2022-08-04T20:52:43.547Z,2.53
2022-08-04T20:55:10.152Z,2.38
2022-08-04T20:57:49.623Z,2.47
2022-08-04T21:03:04.421Z,2.45
2022-08-04T21:05:33.414Z,2.25
2022-08-04T21:07:59.898Z,2.00
2022-08-04T21:10:26.463Z,2.30
2022-08-04T21:12:56.767Z,2.38
2022-08-04T21:15:58.756Z,2.38
2022-08-04T21:18:14.021Z,2.15
2022-08-04T21:20:42.856Z,2.38
2022-08-04T21:23:10.029Z,2.40
2022-08-04T21:25:37.936Z,2.30
2022-08-04T21:28:10.294Z,2.50
2022-08-04T21:30:54.619Z,2.55
2022-08-04T21:33:23.006Z,2.67
2022-08-04T21:35:54.203Z,2.58
2022-08-04T21:38:21.851Z,2.83
2022-08-04T21:40:53.559Z,2.58
2022-08-04T21:43:20.522Z,2.90
2022-08-04T21:45:50.319Z,3.03
2022-08-04T21:48:16.928Z,2.67
2022-08-04T21:50:43.670Z,3.28
2022-08-04T21:53:16.854Z,2.70
2022-08-04T21:56:05.476Z,2.70
2022-08-04T21:58:36.170Z,2.63
2022-08-04T22:01:13.260Z,3.20
2022-08-04T22:03:52.351Z,2.72
2022-08-04T22:06:20.956Z,2.35
2022-08-04T22:08:55.889Z,2.77
2022-08-04T22:11:49.066Z,2.33
2022-08-04T22:14:17.040Z,2.35
2022-08-04T22:16:45.090Z,2.30
2022-08-04T22:19:11.536Z,2.10
2022-08-04T22:21:45.302Z,2.22
2022-08-04T22:24:18.851Z,2.20
2022-08-04T22:26:49.257Z,2.05
2022-08-04T22:29:17.573Z,2.40
2022-08-04T22:31:56.140Z,2.05
2022-08-04T22:34:24.205Z,2.15
2022-08-04T22:36:50.627Z,2.15
2022-08-04T22:39:17.272Z,2.20
2022-08-04T22:41:48.629Z,1.90
2022-08-04T22:44:32.964Z,2.22
2022-08-04T22:46:59.604Z,2.20
2022-08-04T22:49:31.702Z,1.83
2022-08-04T22:51:58.523Z,1.98
2022-08-04T22:54:26.081Z,2.08
2022-08-04T22:56:55.269Z,2.30
2022-08-04T22:59:23.280Z,2.10
2022-08-04T23:02:01.348Z,2.00
2022-08-04T23:04:32.564Z,2.28
2022-08-04T23:07:00.042Z,1.90
2022-08-04T23:09:49.513Z,1.98
2022-08-04T23:12:28.128Z,2.00
2022-08-04T23:14:55.506Z,2.03
2022-08-04T23:17:22.310Z,2.10
2022-08-04T23:19:57.477Z,2.03
2022-08-04T23:22:40.962Z,1.92
2022-08-04T23:25:15.077Z,2.15
2022-08-04T23:27:43.929Z,2.00
2022-08-04T23:30:15.063Z,1.85
2022-08-04T23:32:41.521Z,2.05
2022-08-04T23:35:08.203Z,1.98
2022-08-04T23:37:35.741Z,1.90
2022-08-04T23:40:33.753Z,2.00
2022-08-04T23:43:12.270Z,2.05
2022-08-04T23:46:07.453Z,2.50
2022-08-04T23:48:31.109Z,2.05
2022-08-04T23:51:13.865Z,2.10
2022-08-04T23:54:02.267Z,2.03
2022-08-04T23:56:28.722Z,1.83
2022-08-04T23:58:55.907Z,1.90
